VECC/CCU METAR and TAF weather

Enter ICAO airport designator
Station Type Date Time Source
VECC METAR 2021/09/23 18:30 UTC NOAA

VECC 231830Z 00000KT 3500 HZ SCT018 BKN100 28/27 Q1007 NOSIG


Station Type Date Time Source
VECC Decoded METAR 2021/09/23 18:30 UTC NOAA

Calcutta / Dum Dum, India (VECC) 22-39N 088-27E 6M
Sep 23, 2021 - 02:30 PM EDT / 2021.09.23 1830 UTC
Wind: Calm:0
Visibility: 2 mile(s):0
Sky conditions: mostly cloudy
Weather: haze
Temperature: 82 F (28 C)
Dew Point: 80 F (27 C)
Relative Humidity: 94%
Pressure (altimeter): 29.74 in. Hg (1007 hPa)
ob: VECC 231830Z 00000KT 3500 HZ SCT018 BKN100 28/27 Q1007 NOSIG
cycle: 18

Station Type Date Time Source
VECC TAF 2021/09/23 18:39 UTC NOAA

TAF VECC 231700Z 2318/2424 00000KT 3500 -RA HZ SCT018 SCT100
BECMG 2322/2324 2500 -RA HZ
BECMG 2402/2404 12005KT 3500 -RA HZ
TEMPO 2405/2409 1500 TSRA SCT015 FEW025CB OVC090
BECMG 2422/2424 2500 -RA HZ

Example: see airport list